KPZQ METAR Reports


Rogers City, Presque Isle County Airport, MI, United States (KPZQ) 45-24-25N 083-48-46W
Sep 25, 2022 - 03:35 AM EDT / 2022.09.25 0735 UTC
Wind: Calm:0
Visibility: 10 mile(s):0
Sky conditions: overcast
Temperature: 50.2 F (10.1 C)
Dew Point: 48.6 F (9.2 C)
Relative Humidity: 94%
Pressure (altimeter): 29.65 in. Hg (1004 hPa)
ob: KPZQ 250735Z AUTO 00000KT 10SM BKN017 BKN023 OVC029 10/09 A2965 RMK AO2 T01010092
cycle: 7

 

Rogers City METAR Meteogram

Weather Chart

Nearby METAR Reports

KPZQ - Rogers City, Michigan, USA
Distance from station: SSW 1mi, 2km
Updated: Sun, 25-Sep-2022 3:15am EDT
Drizzle, Overcast
Drizzle, Overcast
 Wind from SSW
Wind: SSW 3 mph , 6 km/h
Temperature: 50°F , 10°C
Dew Point: 48°F , 9°C
Humidity: 94%
Barometer: 29.66 inHg , 1004.4 hPa
Summary: Drizzle
Clouds: Overcast
Visibility: 3 miles , 5 km
Cloud details: Partly cloudy 1500 ft
Mostly cloudy 2900 ft
Overcast 3600 ft
2022/09/25 07:15 KPZQ 250715Z AUTO 20003KT 3SM DZ SCT015 BKN029 OVC036 10/09 A2966 RMK AO2 T01020093
KAPN - Alpena, Michigan, USA
Distance from station: SSE 27mi, 43km
Updated: Sun, 25-Sep-2022 2:54am EDT
NOT Current
Overcast
Overcast
 Wind from SW
Wind: SW 3 mph , 6 km/h
Temperature: 52°F , 11°C
Dew Point: 52°F , 11°C
Humidity: 100%
Barometer: 29.66 inHg , 1004.4 hPa
Clouds: Overcast
Visibility: 10 miles , 16 km
Cloud details: Mostly cloudy 4200 ft
Overcast 11000 ft
2022/09/25 06:54 KAPN 250654Z AUTO 22003KT 10SM BKN042 OVC110 11/11 A2966 RMK AO2 SLP046 T01110106
 
KSLH - Cheboygan, Michigan, USA
Distance from station: WNW 38mi, 61km
Updated: Sun, 25-Sep-2022 3:35am EDT
Overcast
Overcast
 Wind from WNW
Wind: WNW 3 mph , 6 km/h
Temperature: 52°F , 11°C
Dew Point: 52°F , 11°C
Humidity: 100%
Barometer: 29.63 inHg , 1003.4 hPa
Clouds: Overcast
Visibility: 7 miles , 11 km
Cloud details: Mostly cloudy 900 ft
Mostly cloudy 1600 ft
Overcast 10000 ft
2022/09/25 07:35 KSLH 250735Z AUTO 29003KT 7SM BKN009 BKN016 OVC100 11/11 A2963 RMK AO2
KDRM - Drummond Is, Michigan, USA
Distance from station: N 40mi, 65km
Updated: Sun, 25-Sep-2022 3:35am EDT
Light drizzle, Overcast
Light drizzle, Overcast
 Wind from calm
Wind: Calm
Temperature: 50°F , 10°C
Dew Point: 50°F , 10°C
Humidity: 100%
Barometer: 29.64 inHg , 1003.7 hPa
Summary: Light Drizzle
Clouds: Overcast
Visibility: 10 miles , 16 km
Cloud details: Overcast 2500 ft
2022/09/25 07:35 KDRM 250735Z AUTO 00000KT 10SM -DZ OVC025 10/10 A2964 RMK AO2 T01040104
 
KPLN - Pellston, Michigan, USA
Distance from station: WNW 49mi, 79km
Updated: Sun, 25-Sep-2022 3:32am EDT
Overcast
Overcast
 Wind from WNW
Wind: WNW 3 mph , 6 km/h
Temperature: 52°F , 11°C
Dew Point: 52°F , 11°C
Humidity: 100%
Barometer: 29.65 inHg , 1004.1 hPa
Clouds: Overcast
Visibility: 10 miles , 16 km
Cloud details: Partly cloudy 700 ft
Mostly cloudy 1800 ft
Overcast 4800 ft
2022/09/25 07:32 KPLN 250732Z AUTO 29003KT 10SM SCT007 BKN018 OVC048 11/11 A2965 RMK AO2 RAB08E17 P0000 T01110106
KMCD - Mackinac Island, Michigan, USA
Distance from station: NW 50mi, 80km
Updated: Sun, 25-Sep-2022 3:35am EDT
Overcast
Overcast
 Wind from N
Wind: N 6 mph , 9 km/h
Temperature: 52°F , 11°C
Dew Point: 52°F , 11°C
Humidity: 100%
Barometer: 29.64 inHg , 1003.7 hPa
Clouds: Overcast
Visibility: 10 miles , 16 km
Cloud details: Overcast 600 ft
2022/09/25 07:35 KMCD 250735Z AUTO 36005KT 10SM OVC006 11/11 A2964 RMK AO2 T01080108